createdAt,value
2019-04-14T00:00:35.815Z,946.4
2019-04-14T00:03:46.101Z,946.3
2019-04-14T00:06:57.487Z,946.2
2019-04-14T00:10:09.338Z,946.3
2019-04-14T00:13:19.563Z,946.2
2019-04-14T00:16:29.748Z,946.2
2019-04-14T00:19:39.760Z,946.1
2019-04-14T00:22:51.204Z,946.1
2019-04-14T00:26:00.802Z,946
2019-04-14T00:29:11.461Z,946
2019-04-14T00:32:22.672Z,946
2019-04-14T00:35:34.189Z,946
2019-04-14T00:38:47.772Z,945.9
2019-04-14T00:42:05.293Z,945.9
2019-04-14T00:45:17.649Z,945.9
2019-04-14T00:49:09.291Z,945.9
2019-04-14T00:52:21.151Z,945.8
2019-04-14T00:55:33.529Z,945.9
2019-04-14T00:58:43.206Z,945.9
2019-04-14T01:01:53.259Z,945.9
2019-04-14T01:05:04.959Z,945.9
2019-04-14T01:08:16.270Z,945.8
2019-04-14T01:11:27.033Z,945.9
2019-04-14T01:14:36.868Z,945.9
2019-04-14T01:17:48.447Z,945.9
2019-04-14T01:20:58.409Z,945.9
2019-04-14T01:24:09.622Z,945.9
2019-04-14T01:27:19.545Z,945.9
2019-04-14T01:30:30.599Z,945.9
2019-04-14T01:33:40.696Z,945.9
2019-04-14T01:36:52.474Z,945.9
2019-04-14T01:40:03.866Z,945.9
2019-04-14T01:43:15.169Z,945.8
2019-04-14T01:46:33.112Z,945.8
2019-04-14T01:49:46.592Z,945.8
2019-04-14T01:52:56.750Z,945.9
2019-04-14T01:56:07.928Z,945.9
2019-04-14T01:59:17.917Z,945.8
2019-04-14T02:02:29.109Z,945.9
2019-04-14T02:05:39.156Z,945.8
2019-04-14T02:08:50.652Z,945.9
2019-04-14T02:12:01.615Z,945.8
2019-04-14T02:15:11.885Z,945.8
2019-04-14T02:18:23.477Z,945.8
2019-04-14T02:21:34.537Z,945.8
2019-04-14T02:24:46.562Z,945.8
2019-04-14T02:27:57.945Z,945.8
2019-04-14T02:32:17.047Z,945.7
2019-04-14T02:50:29.794Z,945.6
2019-04-14T02:59:19.021Z,945.7
2019-04-14T03:09:07.468Z,945.8
2019-04-14T03:27:22.111Z,945.9
2019-04-14T03:47:05.061Z,945.8
2019-04-14T03:55:15.875Z,945.9
2019-04-14T03:59:20.187Z,945.9
2019-04-14T04:02:33.694Z,945.8
2019-04-14T04:05:43.443Z,945.9
2019-04-14T04:08:53.112Z,946
2019-04-14T04:12:07.462Z,946
2019-04-14T04:15:17.046Z,946.1
2019-04-14T04:18:27.072Z,946.1
2019-04-14T04:22:17.164Z,946.1
2019-04-14T04:25:26.833Z,946
2019-04-14T04:28:36.967Z,946.1
2019-04-14T04:31:48.236Z,946
2019-04-14T04:34:58.207Z,946.1
2019-04-14T04:38:09.493Z,946.1
2019-04-14T04:41:19.545Z,946.1
2019-04-14T04:44:31.275Z,946.1
2019-04-14T04:47:41.121Z,946.1
2019-04-14T04:50:51.937Z,946.2
2019-04-14T04:54:01.670Z,946.2
2019-04-14T04:57:11.250Z,946.2
2019-04-14T05:00:22.158Z,946.2
2019-04-14T05:03:32.292Z,946.2
2019-04-14T05:06:44.294Z,946.2
2019-04-14T05:09:55.570Z,946.2
2019-04-14T05:13:09.386Z,946.2
2019-04-14T05:16:19.205Z,946.2
2019-04-14T05:19:40.383Z,946.2
2019-04-14T05:22:52.920Z,946.2
2019-04-14T05:26:02.720Z,946.2
2019-04-14T05:29:12.919Z,946.3
2019-04-14T05:32:23.966Z,946.3
2019-04-14T05:35:33.952Z,946.3
2019-04-14T05:38:44.999Z,946.3
2019-04-14T05:42:18.846Z,946.2
2019-04-14T05:45:37.321Z,946.2
2019-04-14T05:48:47.058Z,946.2
2019-04-14T05:51:59.069Z,946.2
2019-04-14T05:55:13.428Z,946.3
2019-04-14T05:58:23.091Z,946.3
2019-04-14T06:01:33.759Z,946.2
2019-04-14T06:04:43.962Z,946.3
2019-04-14T06:07:55.324Z,946.3
2019-04-14T06:11:01.401Z,946.3
2019-04-14T06:14:07.444Z,946.3
2019-04-14T06:17:13.407Z,946.3
2019-04-14T06:20:19.364Z,946.3
2019-04-14T06:23:25.244Z,946.3
2019-04-14T06:26:31.178Z,946.4
2019-04-14T06:29:37.137Z,946.4
2019-04-14T06:32:43.098Z,946.3
2019-04-14T06:35:48.984Z,946.3
2019-04-14T06:38:55.016Z,946.4
2019-04-14T06:42:01.081Z,946.4
2019-04-14T06:45:06.962Z,946.4
2019-04-14T06:48:12.901Z,946.4
2019-04-14T06:51:18.859Z,946.5
2019-04-14T06:54:24.919Z,946.5
2019-04-14T06:57:30.794Z,946.4
2019-04-14T07:00:36.998Z,946.5
2019-04-14T07:03:42.958Z,946.5
2019-04-14T07:06:51.366Z,946.5
2019-04-14T07:09:57.381Z,946.5
2019-04-14T07:13:03.294Z,946.5
2019-04-14T07:16:09.302Z,946.5
2019-04-14T07:19:15.260Z,946.5
2019-04-14T07:22:21.334Z,946.5
2019-04-14T07:25:27.326Z,946.5
2019-04-14T07:28:33.243Z,946.4
2019-04-14T07:31:39.209Z,946.5
2019-04-14T07:34:45.216Z,946.5
2019-04-14T07:37:51.225Z,946.5
2019-04-14T07:40:57.099Z,946.6
2019-04-14T07:44:03.051Z,946.6
2019-04-14T07:47:08.931Z,946.6
2019-04-14T07:50:16.307Z,946.6
2019-04-14T07:53:22.258Z,946.6
2019-04-14T07:56:28.215Z,946.6
2019-04-14T07:59:34.185Z,946.6
2019-04-14T08:02:40.133Z,946.6
2019-04-14T08:05:46.103Z,946.5
2019-04-14T08:08:51.980Z,946.5
2019-04-14T08:11:58.015Z,946.5
2019-04-14T08:15:03.922Z,946.5
2019-04-14T08:18:09.831Z,946.5
2019-04-14T08:21:15.797Z,946.4
2019-04-14T08:24:21.666Z,946.4
2019-04-14T08:27:27.618Z,946.3
2019-04-14T08:30:33.608Z,946.4
2019-04-14T08:33:39.571Z,946.4
2019-04-14T08:36:45.488Z,946.3
2019-04-14T08:39:51.363Z,946.3
2019-04-14T08:42:57.310Z,946.2
2019-04-14T08:46:03.194Z,946.2
2019-04-14T08:49:09.129Z,946.2
2019-04-14T08:52:15.143Z,946.1
2019-04-14T08:55:21.150Z,946.1
2019-04-14T08:58:27.046Z,946.1
2019-04-14T09:01:33.077Z,946.1
2019-04-14T09:04:39.139Z,946.1
2019-04-14T09:07:45.034Z,946.1
2019-04-14T09:10:50.958Z,946.1
2019-04-14T09:13:57.021Z,946.1
2019-04-14T09:17:03.102Z,946.1
2019-04-14T09:20:09.037Z,946.1
2019-04-14T09:23:15.036Z,946.1
2019-04-14T09:26:20.965Z,946.1
2019-04-14T09:29:27.017Z,946.1
2019-04-14T09:32:33.092Z,946.1
2019-04-14T09:35:39.144Z,946.2
2019-04-14T09:38:45.102Z,946.2
2019-04-14T09:41:51.065Z,946.1
2019-04-14T09:44:56.962Z,946.2
2019-04-14T09:48:02.993Z,946.1
2019-04-14T09:51:09.200Z,946.1
2019-04-14T09:54:15.213Z,946.1
2019-04-14T09:57:21.103Z,946.1
2019-04-14T10:00:27.178Z,946.1
2019-04-14T10:03:33.345Z,946.1
2019-04-14T10:06:42.319Z,946.1
2019-04-14T10:09:48.558Z,946.1
2019-04-14T10:12:54.555Z,946
2019-04-14T10:16:00.512Z,946
2019-04-14T10:19:06.569Z,946
2019-04-14T10:22:12.458Z,946
2019-04-14T10:25:18.395Z,946
2019-04-14T10:28:24.275Z,946
2019-04-14T10:31:30.334Z,946
2019-04-14T10:34:36.277Z,945.9
2019-04-14T10:37:42.237Z,946
2019-04-14T10:40:48.307Z,946
2019-04-14T10:43:54.409Z,946
2019-04-14T10:47:00.283Z,946
2019-04-14T10:50:06.418Z,946
2019-04-14T10:53:12.457Z,946
2019-04-14T10:56:18.398Z,946
2019-04-14T10:59:24.361Z,946
2019-04-14T11:02:30.318Z,946.1
2019-04-14T11:05:36.875Z,946
2019-04-14T11:08:42.853Z,946
2019-04-14T11:11:48.855Z,946.1
2019-04-14T11:14:54.697Z,946
2019-04-14T11:18:00.631Z,946
2019-04-14T11:21:06.513Z,946
2019-04-14T11:24:12.549Z,946
2019-04-14T11:27:18.431Z,946.1
2019-04-14T11:30:24.367Z,946
2019-04-14T11:33:30.326Z,946
2019-04-14T11:36:36.265Z,946
2019-04-14T11:39:42.246Z,945.9
2019-04-14T11:42:53.737Z,945.9
2019-04-14T11:45:59.709Z,945.9
2019-04-14T11:49:09.137Z,945.9
2019-04-14T11:52:15.102Z,946
2019-04-14T11:55:21.066Z,945.9
2019-04-14T11:58:29.906Z,945.9
2019-04-14T12:01:35.815Z,945.9
2019-04-14T12:04:41.907Z,945.8
2019-04-14T12:07:47.922Z,945.9
2019-04-14T12:10:53.927Z,945.9
2019-04-14T12:14:00.041Z,945.8
2019-04-14T12:17:06.059Z,945.8
2019-04-14T12:20:12.036Z,945.8
2019-04-14T12:23:17.996Z,945.7
2019-04-14T12:26:23.960Z,945.7
2019-04-14T12:29:31.076Z,945.7
2019-04-14T12:32:40.779Z,945.6
2019-04-14T12:35:46.744Z,945.6
2019-04-14T12:38:52.707Z,945.6
2019-04-14T12:41:58.657Z,945.6
2019-04-14T12:45:04.615Z,945.6
2019-04-14T12:48:10.580Z,945.5
2019-04-14T12:51:16.533Z,945.5
2019-04-14T12:54:25.181Z,945.5
2019-04-14T12:57:31.141Z,945.5
2019-04-14T13:00:37.081Z,945.5
2019-04-14T13:03:43.496Z,945.4
2019-04-14T13:06:49.411Z,945.4
2019-04-14T13:09:55.393Z,945.4
2019-04-14T13:13:01.325Z,945.4
2019-04-14T13:16:07.282Z,945.3
2019-04-14T13:19:13.242Z,945.3
2019-04-14T13:22:19.111Z,945.4
2019-04-14T13:25:38.688Z,945.3
2019-04-14T13:28:44.844Z,945.3
2019-04-14T13:31:51.010Z,945.3
2019-04-14T13:34:56.886Z,945.3
2019-04-14T13:38:02.823Z,945.4
2019-04-14T13:41:08.702Z,945.3
2019-04-14T13:44:14.740Z,945.3
2019-04-14T13:47:20.671Z,945.3
2019-04-14T13:50:26.661Z,945.4
2019-04-14T13:53:32.619Z,945.4
2019-04-14T13:56:38.494Z,945.4
2019-04-14T13:59:44.446Z,945.4
2019-04-14T14:02:50.396Z,945.5
2019-04-14T14:05:56.361Z,945.5
2019-04-14T14:09:02.349Z,945.5
2019-04-14T14:12:08.279Z,945.4
2019-04-14T14:15:14.236Z,945.5
2019-04-14T14:18:20.204Z,945.5
2019-04-14T14:21:26.158Z,945.5
2019-04-14T14:24:32.119Z,945.5
2019-04-14T14:27:38.010Z,945.6
2019-04-14T14:30:43.936Z,945.6
2019-04-14T14:33:49.971Z,945.6
2019-04-14T14:36:56.058Z,945.6
2019-04-14T14:40:02.023Z,945.6
2019-04-14T14:43:07.977Z,945.6
2019-04-14T14:46:13.859Z,945.6
2019-04-14T14:49:19.799Z,945.7
2019-04-14T14:52:25.760Z,945.7
2019-04-14T14:55:31.713Z,945.7
2019-04-14T14:58:37.779Z,945.8
2019-04-14T15:01:43.663Z,945.8
2019-04-14T15:04:49.696Z,945.9
2019-04-14T15:07:55.582Z,945.9
2019-04-14T15:11:05.668Z,945.9
2019-04-14T15:14:11.600Z,945.9
2019-04-14T15:17:17.535Z,946
2019-04-14T15:20:26.498Z,946
2019-04-14T15:23:32.447Z,946
2019-04-14T15:26:38.382Z,946
2019-04-14T15:29:44.456Z,946.1
2019-04-14T15:32:50.407Z,946
2019-04-14T15:35:56.284Z,946
2019-04-14T15:39:02.233Z,946
2019-04-14T15:42:08.187Z,946
2019-04-14T15:45:15.371Z,946.1
2019-04-14T15:48:21.430Z,946.1
2019-04-14T15:51:27.388Z,946
2019-04-14T15:54:33.347Z,946.1
2019-04-14T15:57:39.422Z,946.1
2019-04-14T16:00:45.373Z,946.1
2019-04-14T16:03:51.285Z,946.1
2019-04-14T16:06:57.292Z,946.1
2019-04-14T16:10:03.259Z,946.2
2019-04-14T16:13:09.145Z,946.2
2019-04-14T16:16:15.171Z,946.2
2019-04-14T16:19:21.135Z,946.3
2019-04-14T16:22:27.093Z,946.3
2019-04-14T16:25:32.971Z,946.3
2019-04-14T16:28:38.905Z,946.3
2019-04-14T16:31:44.890Z,946.4
2019-04-14T16:34:50.825Z,946.4
2019-04-14T16:37:56.793Z,946.4
2019-04-14T16:41:02.806Z,946.4
2019-04-14T16:44:08.862Z,946.4
2019-04-14T16:47:14.773Z,946.5
2019-04-14T16:50:20.741Z,946.5
2019-04-14T16:53:26.688Z,946.6
2019-04-14T16:56:32.648Z,946.6
2019-04-14T16:59:38.708Z,946.6
2019-04-14T17:02:44.668Z,946.7
2019-04-14T17:05:53.712Z,946.7
2019-04-14T17:08:59.722Z,946.7
2019-04-14T17:12:05.626Z,946.7
2019-04-14T17:15:11.591Z,946.7
2019-04-14T17:18:17.644Z,946.8
2019-04-14T17:21:23.530Z,946.8
2019-04-14T17:24:29.563Z,946.9
2019-04-14T17:27:35.521Z,946.9
2019-04-14T17:30:41.487Z,947
2019-04-14T17:33:47.554Z,947
2019-04-14T17:36:56.434Z,947
2019-04-14T17:40:02.586Z,947.1
2019-04-14T17:43:08.477Z,947.1
2019-04-14T17:46:14.561Z,947.1
2019-04-14T17:49:20.730Z,947.1
2019-04-14T17:52:26.783Z,947.1
2019-04-14T17:55:32.999Z,947.1
2019-04-14T17:58:53.530Z,947.2
2019-04-14T18:01:59.515Z,947.3
2019-04-14T18:05:05.473Z,947.3
2019-04-14T18:08:11.432Z,947.3
2019-04-14T18:11:17.315Z,947.4
2019-04-14T18:14:23.451Z,947.3
2019-04-14T18:17:32.074Z,947.4
2019-04-14T18:20:37.958Z,947.4
2019-04-14T18:23:44.003Z,947.4
2019-04-14T18:26:49.869Z,947.4
2019-04-14T18:29:55.916Z,947.4
2019-04-14T18:33:01.873Z,947.4
2019-04-14T18:36:07.756Z,947.4
2019-04-14T18:39:13.693Z,947.4
2019-04-14T18:42:19.623Z,947.5
2019-04-14T18:45:25.509Z,947.5
2019-04-14T18:48:31.470Z,947.5
2019-04-14T18:51:37.515Z,947.6
2019-04-14T18:54:55.727Z,947.6
2019-04-14T18:58:01.608Z,947.6
2019-04-14T19:01:07.672Z,947.6
2019-04-14T19:04:13.663Z,947.6
2019-04-14T19:07:19.622Z,947.6
2019-04-14T19:10:25.583Z,947.6
2019-04-14T19:13:31.475Z,947.7
2019-04-14T19:16:41.085Z,947.7
2019-04-14T19:19:47.047Z,947.7
2019-04-14T19:23:07.341Z,947.7
2019-04-14T19:26:13.219Z,947.7
2019-04-14T19:29:19.362Z,947.8
2019-04-14T19:32:25.423Z,947.8
2019-04-14T19:35:31.393Z,947.8
2019-04-14T19:38:37.390Z,947.8
2019-04-14T19:41:43.524Z,947.8
2019-04-14T19:44:49.467Z,947.8
2019-04-14T19:47:55.388Z,947.8
2019-04-14T19:51:01.391Z,947.8
2019-04-14T19:54:07.267Z,947.8
2019-04-14T19:57:15.920Z,947.8
2019-04-14T20:00:22.030Z,947.8
2019-04-14T20:03:28.092Z,947.9
2019-04-14T20:06:33.973Z,947.8
2019-04-14T20:09:40.217Z,947.9
2019-04-14T20:12:46.192Z,947.9
2019-04-14T20:15:52.264Z,947.9
2019-04-14T20:19:11.563Z,948
2019-04-14T20:22:17.475Z,947.9
2019-04-14T20:25:34.852Z,948
2019-04-14T20:28:40.924Z,948
2019-04-14T20:31:47.032Z,947.9
2019-04-14T20:34:53.086Z,947.9
2019-04-14T20:37:59.058Z,947.9
2019-04-14T20:41:05.010Z,947.9
2019-04-14T20:44:10.972Z,948
2019-04-14T20:47:17.025Z,948
2019-04-14T20:50:22.987Z,948
2019-04-14T20:53:28.924Z,948
2019-04-14T20:56:34.907Z,948
2019-04-14T20:59:40.787Z,948
2019-04-14T21:02:46.733Z,948
2019-04-14T21:05:53.039Z,948.1
2019-04-14T21:09:01.723Z,948
2019-04-14T21:12:07.587Z,948.1
2019-04-14T21:15:13.530Z,948
2019-04-14T21:18:19.513Z,948.1
2019-04-14T21:21:25.451Z,948
2019-04-14T21:24:31.409Z,948
2019-04-14T21:27:37.382Z,948.1
2019-04-14T21:30:43.500Z,948.1
2019-04-14T21:33:49.511Z,948.1
2019-04-14T21:36:55.459Z,948.1
2019-04-14T21:40:01.415Z,948
2019-04-14T21:43:07.373Z,948.2
2019-04-14T21:46:13.435Z,948.1
2019-04-14T21:49:19.399Z,948.1
2019-04-14T21:52:25.355Z,948.1
2019-04-14T21:55:31.314Z,948.1
2019-04-14T21:58:40.094Z,948.1
2019-04-14T22:01:45.998Z,948.1
2019-04-14T22:04:51.972Z,948.2
2019-04-14T22:07:58.020Z,948.2
2019-04-14T22:11:03.894Z,948.2
2019-04-14T22:14:09.843Z,948.1
2019-04-14T22:17:15.803Z,948.2
2019-04-14T22:20:21.807Z,948.1
2019-04-14T22:23:27.819Z,948.1
2019-04-14T22:26:33.779Z,948
2019-04-14T22:29:39.739Z,948.1
2019-04-14T22:32:45.841Z,948
2019-04-14T22:35:51.738Z,948.1
2019-04-14T22:38:57.719Z,948
2019-04-14T22:42:03.685Z,948
2019-04-14T22:45:09.743Z,948
2019-04-14T22:48:15.705Z,948
2019-04-14T22:51:21.663Z,947.9
2019-04-14T22:54:27.534Z,948
2019-04-14T22:57:33.486Z,948
2019-04-14T23:00:39.551Z,948
2019-04-14T23:03:45.670Z,948
2019-04-14T23:06:54.230Z,948
2019-04-14T23:10:00.367Z,948
2019-04-14T23:13:06.226Z,948
2019-04-14T23:16:12.212Z,948
2019-04-14T23:19:18.174Z,948
2019-04-14T23:22:24.129Z,948
2019-04-14T23:25:30.093Z,948
2019-04-14T23:28:36.053Z,948
2019-04-14T23:31:42.013Z,948
2019-04-14T23:34:47.972Z,948
2019-04-14T23:37:53.888Z,948
2019-04-14T23:41:00.050Z,948
2019-04-14T23:44:05.951Z,948
2019-04-14T23:47:12.015Z,948
2019-04-14T23:50:17.977Z,948
2019-04-14T23:53:23.929Z,948
2019-04-14T23:56:32.860Z,947.9
2019-04-14T23:59:38.824Z,947.9
